AST,Max TemperatureF,Mean TemperatureF,Min TemperatureF,Max Dew PointF,MeanDew PointF,Min DewpointF,Max Humidity, Mean Humidity, Min Humidity, Max Sea Level PressureIn, Mean Sea Level PressureIn, Min Sea Level PressureIn, Max VisibilityMiles, Mean VisibilityMiles, Min VisibilityMiles, Max Wind SpeedMPH, Mean Wind SpeedMPH, Max Gust SpeedMPH,PrecipitationIn, CloudCover, Events, WindDirDegrees
2013-12-1,-15,-16,-19,-20,-22,-24,68,66,64,30.20,30.16,30.13,7,2,0,32,13,26,0.00,,Snow,159
2013-12-2,-1,-13,-18,-4,-14,-22,82,73,66,30.22,30.09,29.94,6,5,4,31,18,44,0.00,8,Snow,121
2013-12-3,9,2,-9,5,-3,-13,85,79,72,30.15,30.00,29.88,5,3,1,31,8,44,0.00,8,Snow,355
2013-12-4,-8,-14,-21,-13,-20,-26,74,69,64,30.54,30.39,30.24,6,4,2,48,25,67,0.00,8,,198
2013-12-5,-17,-20,-22,-24,-26,-27,67,63,60,30.63,30.60,30.56,7,7,6,34,23,43,0.00,,,228
2013-12-6,-9,-16,-20,-13,-19,-25,72,68,63,30.46,30.18,29.86,6,4,1,29,17,45,0.00,8,Snow,163
2013-12-7,-6,-10,-20,-11,-17,-25,73,69,63,29.68,29.64,29.59,6,4,2,34,20,43,0.00,8,Snow,233
2013-12-8,-14,-18,-24,-22,-25,-29,64,63,63,29.85,29.81,29.74,6,4,2,36,32,46,0.00,8,,265
2013-12-9,-20,-24,-27,-27,-30,-33,65,60,57,29.81,29.78,29.75,6,4,3,34,21,37,0.00,8,Snow,278
2013-12-10,-26,-29,-32,-35,-37,-39,56,54,50,29.71,29.67,29.64,6,4,2,29,16,41,0.00,,,212
2013-12-11,-26,-29,-31,-32,-35,-37,56,55,53,30.00,29.84,29.71,6,6,6,43,28,53,0.00,,,271
2013-12-12,18,-4,-27,15,8,-34,92,79,54,30.31,30.22,30.10,6,5,2,41,31,56,0.00,,,273
2013-12-13,23,-4,-31,18,11,-37,100,81,54,30.30,29.87,29.72,3,1,0,39,26,50,0.00,8,Snow,261
2013-12-14,22,0,-23,19,12,-26,98,82,62,30.45,30.18,29.91,2,2,1,37,31,47,0.00,8,,283
2013-12-15,33,2,-29,29,16,-36,100,81,54,30.48,29.88,28.95,6,5,3,77,21,105,0.00,,,102
2013-12-16,27,-2,-32,29,21,-39,99,85,53,29.80,29.50,29.10,6,6,6,36,16,47,0.00,,,263
2013-12-17,25,-2,-28,22,16,-35,96,79,54,30.29,30.04,29.73,5,4,3,37,24,47,0.00,8,Snow,274
2013-12-18,36,2,-31,33,20,-37,100,84,51,30.28,29.74,29.15,5,5,5,62,22,86,0.00,,,90
2013-12-19,27,-3,-33,27,18,-40,96,80,53,29.90,29.77,29.34,5,4,3,43,32,55,0.00,,,264
2013-12-20,26,-6,-38,25,17,-45,93,78,47,30.20,30.07,29.68,4,3,2,28,18,33,0.00,,,260
2013-12-21,40,2,-35,38,28,-41,96,84,51,30.11,29.89,29.66,5,3,1,22,12,34,0.00,8,Snow,142
2013-12-22,27,0,-26,34,23,-27,97,88,64,30.21,30.03,29.65,4,2,2,24,15,21,0.00,8,Snow,360
2013-12-23,33,6,-22,29,21,-22,92,79,69,30.23,30.04,29.41,5,3,2,24,12,38,0.00,8,Snow,78
2013-12-24,32,2,-27,29,23,-34,92,81,54,29.96,29.88,29.54,3,2,1,23,10,36,0.00,,,13
2013-12-25,23,-3,-29,22,14,-36,91,75,52,30.40,30.04,29.71,4,4,3,29,19,37,0.00,8,Snow,335
2013-12-26,28,-2,-32,26,13,-39,94,73,53,30.54,30.33,29.69,4,4,3,23,13,32,0.00,,Snow,209
2013-12-27,30,-3,-36,29,23,-43,100,90,48,30.09,29.89,29.76,5,4,3,31,13,39,0.00,,,305
2013-12-28,34,0,-35,30,18,-43,94,78,46,30.01,29.90,29.74,5,4,1,34,24,44,0.00,8,,240
2013-12-29,31,-2,-36,29,15,-42,93,78,49,30.15,30.04,29.83,5,5,4,24,18,32,0.00,,,317
2013-12-30,35,-1,-37,33,23,-44,100,85,47,30.14,29.60,29.18,4,4,2,58,32,82,0.00,,,142
2013-12-31,20,-8,-37,18,10,-45,91,75,47,30.18,29.95,29.81,4,2,2,32,21,39,0.00,,,273